createdAt,value
2022-11-07T00:04:38.559Z,16.95
2022-11-07T00:09:32.983Z,10.63
2022-11-07T00:14:27.742Z,11.05
2022-11-07T00:19:22.466Z,9.40
2022-11-07T00:24:18.156Z,10.05
2022-11-07T00:29:18.432Z,9.80
2022-11-07T00:34:11.842Z,10.40
2022-11-07T00:39:06.276Z,10.77
2022-11-07T00:44:04.260Z,11.35
2022-11-07T00:48:58.685Z,10.73
2022-11-07T00:53:52.614Z,10.48
2022-11-07T00:58:46.577Z,8.88
2022-11-07T01:03:57.942Z,11.48
2022-11-07T01:08:52.275Z,11.93
2022-11-07T01:13:46.207Z,11.50
2022-11-07T01:18:40.289Z,9.45
2022-11-07T01:23:34.247Z,10.75
2022-11-07T01:28:27.300Z,7.65
2022-11-07T01:33:21.317Z,10.68
2022-11-07T01:38:15.287Z,7.90
2022-11-07T01:43:11.415Z,9.30
2022-11-07T01:48:06.430Z,9.30
2022-11-07T01:53:00.599Z,6.88
2022-11-07T02:03:18.156Z,8.90
2022-11-07T02:08:28.136Z,8.90
2022-11-07T02:13:29.448Z,9.52
2022-11-07T02:18:23.751Z,9.30
2022-11-07T02:23:51.460Z,9.07
2022-11-07T02:28:46.305Z,8.40
2022-11-07T02:33:40.026Z,10.15
2022-11-07T02:38:36.608Z,8.50
2022-11-07T02:43:31.491Z,9.93
2022-11-07T02:48:31.968Z,8.02
2022-11-07T02:53:25.347Z,6.88
2022-11-07T02:58:19.749Z,7.13
2022-11-07T03:03:13.932Z,6.75
2022-11-07T03:08:08.191Z,7.35
2022-11-07T03:13:02.915Z,6.55
2022-11-07T03:17:57.390Z,6.82
2022-11-07T03:22:51.425Z,6.85
2022-11-07T03:28:07.742Z,6.38
2022-11-07T03:33:01.444Z,6.05
2022-11-07T03:37:59.648Z,7.25
2022-11-07T03:42:53.584Z,8.13
2022-11-07T03:47:47.865Z,9.13
2022-11-07T03:52:40.993Z,7.25
2022-11-07T03:57:35.038Z,7.63
2022-11-07T04:02:29.583Z,7.15
2022-11-07T04:07:23.711Z,7.18
2022-11-07T04:12:36.605Z,9.82
2022-11-07T04:17:30.963Z,6.13
2022-11-07T04:22:24.864Z,5.93
2022-11-07T04:27:37.331Z,7.20
2022-11-07T04:32:31.266Z,6.75
2022-11-07T04:37:24.000Z,6.93
2022-11-07T04:42:18.111Z,5.80
2022-11-07T04:47:11.967Z,7.20
2022-11-07T04:52:06.264Z,5.03
2022-11-07T05:01:53.382Z,9.65
2022-11-07T05:06:48.674Z,5.82
2022-11-07T05:11:42.132Z,4.53
2022-11-07T05:16:35.979Z,5.53
2022-11-07T05:21:30.021Z,6.05
2022-11-07T05:26:23.758Z,6.53
2022-11-07T05:36:18.532Z,5.70
2022-11-07T05:41:12.352Z,4.57
2022-11-07T05:46:05.829Z,6.43
2022-11-07T05:50:59.434Z,5.45
2022-11-07T05:55:53.441Z,6.05
2022-11-07T06:00:47.818Z,9.48
2022-11-07T06:05:42.278Z,7.13
2022-11-07T06:10:37.098Z,5.55
2022-11-07T06:15:32.334Z,5.57
2022-11-07T06:20:25.895Z,6.38
2022-11-07T06:30:14.461Z,10.23
2022-11-07T06:35:09.155Z,6.70
2022-11-07T06:40:02.957Z,10.75
2022-11-07T06:44:56.960Z,6.57
2022-11-07T06:49:50.363Z,6.82
2022-11-07T06:54:45.332Z,6.75
2022-11-07T06:59:38.566Z,5.82
2022-11-07T07:09:26.116Z,11.25
2022-11-07T07:14:19.921Z,8.95
2022-11-07T07:24:08.225Z,9.00
2022-11-07T07:29:02.323Z,10.80
2022-11-07T07:33:55.746Z,13.55
2022-11-07T07:38:50.548Z,10.80
2022-11-07T07:43:44.141Z,13.98
2022-11-07T07:53:30.255Z,13.17
2022-11-07T07:58:25.390Z,11.63
2022-11-07T08:03:19.806Z,14.60
2022-11-07T08:08:14.209Z,20.90
2022-11-07T08:13:08.502Z,16.13
2022-11-07T08:18:02.868Z,21.35
2022-11-07T08:23:04.464Z,16.80
2022-11-07T08:27:57.496Z,16.67
2022-11-07T08:32:51.429Z,17.17
2022-11-07T08:37:44.972Z,20.60
2022-11-07T08:42:38.970Z,15.32
2022-11-07T08:47:32.060Z,17.10
2022-11-07T08:57:19.471Z,18.58
2022-11-07T09:07:27.746Z,16.65
2022-11-07T09:12:21.206Z,18.38
2022-11-07T09:22:07.439Z,21.40
2022-11-07T09:27:05.702Z,18.05
2022-11-07T09:32:05.048Z,19.20
2022-11-07T09:37:06.289Z,18.42
2022-11-07T09:42:13.316Z,18.88
2022-11-07T09:47:17.489Z,21.00
2022-11-07T09:52:19.742Z,19.33
2022-11-07T09:57:17.343Z,18.63
2022-11-07T10:02:17.421Z,21.50
2022-11-07T10:07:26.919Z,18.40
2022-11-07T10:12:43.243Z,19.45
2022-11-07T10:17:53.862Z,19.65
2022-11-07T10:23:16.427Z,16.75
2022-11-07T10:28:18.819Z,19.27
2022-11-07T10:33:39.180Z,18.77
2022-11-07T10:38:34.993Z,18.40
2022-11-07T10:43:39.047Z,17.33
2022-11-07T10:48:33.672Z,18.48
2022-11-07T10:53:27.054Z,19.15
2022-11-07T10:58:27.143Z,19.37
2022-11-07T11:03:43.179Z,20.35
2022-11-07T11:08:39.490Z,20.65
2022-11-07T11:13:35.023Z,20.60
2022-11-07T11:18:28.862Z,20.88
2022-11-07T11:28:43.901Z,23.75
2022-11-07T11:33:46.016Z,20.52
2022-11-07T11:38:59.248Z,22.08
2022-11-07T11:44:17.156Z,23.70
2022-11-07T11:49:36.701Z,23.73
2022-11-07T11:54:30.681Z,23.90
2022-11-07T11:59:55.140Z,23.65
2022-11-07T12:04:59.756Z,23.65
2022-11-07T12:10:15.391Z,23.13
2022-11-07T12:15:37.057Z,21.13
2022-11-07T12:20:30.098Z,23.92
2022-11-07T12:25:51.363Z,24.80
2022-11-07T12:31:13.292Z,24.05
2022-11-07T12:36:26.463Z,23.00
2022-11-07T12:41:25.305Z,24.73
2022-11-07T12:46:23.824Z,26.50
2022-11-07T12:51:26.036Z,29.08
2022-11-07T12:56:23.588Z,26.57
2022-11-07T13:01:21.107Z,27.20
2022-11-07T13:06:33.253Z,22.00
2022-11-07T13:12:08.414Z,24.13
2022-11-07T13:17:20.999Z,24.73
2022-11-07T13:22:14.145Z,29.07
2022-11-07T13:27:25.158Z,25.13
2022-11-07T13:32:19.544Z,23.52
2022-11-07T13:37:27.961Z,21.55
2022-11-07T13:42:30.339Z,24.05
2022-11-07T13:47:34.885Z,24.15
2022-11-07T13:52:37.120Z,22.42
2022-11-07T13:57:38.580Z,24.67
2022-11-07T14:02:34.355Z,23.25
2022-11-07T14:07:31.880Z,19.35
2022-11-07T14:12:24.749Z,20.63
2022-11-07T14:22:25.283Z,24.70
2022-11-07T14:27:19.934Z,22.08
2022-11-07T14:32:17.441Z,22.75
2022-11-07T14:37:14.507Z,24.67
2022-11-07T14:42:08.124Z,21.67
2022-11-07T14:51:55.932Z,21.95
2022-11-07T14:56:53.461Z,22.58
2022-11-07T15:02:19.519Z,21.23
2022-11-07T15:07:24.080Z,22.25
2022-11-07T15:12:26.477Z,20.90
2022-11-07T15:17:25.347Z,24.20
2022-11-07T15:22:28.969Z,27.33
2022-11-07T15:27:28.720Z,26.45
2022-11-07T15:32:27.875Z,24.90
2022-11-07T15:37:23.283Z,27.67
2022-11-07T15:42:16.121Z,24.33
2022-11-07T15:47:18.946Z,27.38
2022-11-07T15:52:11.720Z,29.65
2022-11-07T15:57:06.359Z,31.63
2022-11-07T16:02:00.862Z,29.80
2022-11-07T16:06:54.189Z,28.95
2022-11-07T16:11:46.944Z,28.15
2022-11-07T16:16:41.860Z,27.25
2022-11-07T16:21:36.100Z,26.52
2022-11-07T16:26:29.960Z,41.90
2022-11-07T16:31:23.442Z,38.78
2022-11-07T16:36:29.408Z,31.55
2022-11-07T16:41:23.295Z,35.05
2022-11-07T16:46:18.756Z,35.80
2022-11-07T16:51:17.662Z,65.25
2022-11-07T16:56:21.095Z,41.10
2022-11-07T17:01:14.641Z,38.40
2022-11-07T17:06:33.102Z,40.95
2022-11-07T17:11:27.538Z,61.47
2022-11-07T17:16:26.122Z,57.28
2022-11-07T17:21:28.227Z,36.85
2022-11-07T17:26:22.968Z,35.40
2022-11-07T17:31:16.597Z,43.67
2022-11-07T17:36:37.517Z,46.22
2022-11-07T17:41:32.626Z,43.05
2022-11-07T17:46:30.450Z,38.65
2022-11-07T17:51:27.038Z,48.75
2022-11-07T17:56:40.615Z,45.10
2022-11-07T18:01:36.615Z,45.35
2022-11-07T18:06:30.572Z,46.97
2022-11-07T18:11:25.563Z,48.35
2022-11-07T18:16:21.027Z,48.38
2022-11-07T18:21:13.891Z,48.10
2022-11-07T18:26:09.469Z,46.63
2022-11-07T18:31:12.411Z,48.80
2022-11-07T18:36:08.637Z,49.10
2022-11-07T18:41:05.270Z,55.63
2022-11-07T18:45:58.882Z,59.67
2022-11-07T18:50:52.455Z,54.97
2022-11-07T18:56:00.836Z,50.65
2022-11-07T19:00:55.154Z,55.72
2022-11-07T19:05:50.402Z,48.78
2022-11-07T19:10:44.947Z,48.55
2022-11-07T19:15:40.323Z,47.92
2022-11-07T19:20:33.814Z,50.92
2022-11-07T19:25:26.566Z,51.15
2022-11-07T19:30:20.156Z,58.00
2022-11-07T19:35:14.111Z,72.50
2022-11-07T19:40:10.658Z,75.70
2022-11-07T19:45:04.071Z,80.70
2022-11-07T19:54:52.632Z,71.60
2022-11-07T19:59:46.517Z,62.58
2022-11-07T20:09:34.308Z,56.22
2022-11-07T20:14:28.607Z,56.10
2022-11-07T20:19:21.600Z,50.97
2022-11-07T20:34:02.613Z,60.92
2022-11-07T20:38:56.832Z,60.03
2022-11-07T20:44:04.892Z,61.17
2022-11-07T20:49:02.052Z,58.60
2022-11-07T20:53:55.250Z,55.17
2022-11-07T20:58:49.664Z,56.53
2022-11-07T21:03:43.522Z,49.30
2022-11-07T21:08:37.492Z,53.67
2022-11-07T21:13:30.710Z,50.65
2022-11-07T21:18:24.757Z,51.88
2022-11-07T21:23:18.662Z,50.38
2022-11-07T21:28:19.923Z,63.00
2022-11-07T21:33:14.746Z,63.03
2022-11-07T21:38:09.898Z,59.75
2022-11-07T21:43:04.309Z,51.97
2022-11-07T21:47:58.437Z,45.30
2022-11-07T21:52:52.619Z,43.88
2022-11-07T22:02:43.235Z,43.85
2022-11-07T22:07:37.660Z,38.13
2022-11-07T22:12:31.208Z,41.67
2022-11-07T22:17:25.082Z,41.47
2022-11-07T22:22:18.193Z,39.55
2022-11-07T22:27:11.934Z,42.83
2022-11-07T22:32:06.183Z,37.25
2022-11-07T22:37:00.258Z,38.10
2022-11-07T22:41:54.330Z,37.65
2022-11-07T22:46:48.640Z,41.33
2022-11-07T22:51:42.658Z,35.33
2022-11-07T22:56:36.785Z,37.25
2022-11-07T23:01:35.724Z,39.35
2022-11-07T23:06:29.756Z,38.88
2022-11-07T23:11:45.218Z,39.88
2022-11-07T23:16:42.746Z,38.28
2022-11-07T23:21:37.061Z,32.75
2022-11-07T23:26:34.447Z,37.78
2022-11-07T23:31:28.512Z,35.30
2022-11-07T23:36:22.053Z,31.50
2022-11-07T23:41:19.423Z,32.20
2022-11-07T23:46:32.427Z,32.80
2022-11-07T23:51:26.129Z,34.88
2022-11-07T23:56:20.580Z,36.22
